sensor_id;sensor_type;location;lat;lon;timestamp;temperature;humidity
5689;DHT22;2869;50.432;8.680;2023-08-06T00:01:24;15.40;99.90
5689;DHT22;2869;50.432;8.680;2023-08-06T00:03:51;15.40;99.90
5689;DHT22;2869;50.432;8.680;2023-08-06T00:06:17;15.30;99.90
5689;DHT22;2869;50.432;8.680;2023-08-06T00:08:44;15.30;99.90
5689;DHT22;2869;50.432;8.680;2023-08-06T00:11:12;15.30;99.90
5689;DHT22;2869;50.432;8.680;2023-08-06T00:13:39;15.30;99.90
5689;DHT22;2869;50.432;8.680;2023-08-06T00:16:10;15.30;99.90
5689;DHT22;2869;50.432;8.680;2023-08-06T00:18:36;15.20;99.90
5689;DHT22;2869;50.432;8.680;2023-08-06T00:21:03;15.20;99.90
5689;DHT22;2869;50.432;8.680;2023-08-06T00:23:30;15.20;99.90
5689;DHT22;2869;50.432;8.680;2023-08-06T00:25:56;15.20;99.90
5689;DHT22;2869;50.432;8.680;2023-08-06T00:28:24;15.20;99.90
5689;DHT22;2869;50.432;8.680;2023-08-06T00:30:52;15.20;99.90
5689;DHT22;2869;50.432;8.680;2023-08-06T00:33:19;15.20;99.90
5689;DHT22;2869;50.432;8.680;2023-08-06T00:35:46;15.20;99.90
5689;DHT22;2869;50.432;8.680;2023-08-06T00:38:13;15.20;99.90
5689;DHT22;2869;50.432;8.680;2023-08-06T00:40:39;15.20;99.90
5689;DHT22;2869;50.432;8.680;2023-08-06T00:43:06;15.20;99.90
5689;DHT22;2869;50.432;8.680;2023-08-06T00:45:36;15.20;99.90
5689;DHT22;2869;50.432;8.680;2023-08-06T00:48:05;15.20;99.90
5689;DHT22;2869;50.432;8.680;2023-08-06T00:50:32;15.20;99.90
5689;DHT22;2869;50.432;8.680;2023-08-06T00:52:59;15.10;99.90
5689;DHT22;2869;50.432;8.680;2023-08-06T00:55:26;15.10;99.90
5689;DHT22;2869;50.432;8.680;2023-08-06T00:57:53;15.00;99.90
5689;DHT22;2869;50.432;8.680;2023-08-06T01:00:22;15.00;99.90
5689;DHT22;2869;50.432;8.680;2023-08-06T01:02:50;15.00;99.90
5689;DHT22;2869;50.432;8.680;2023-08-06T01:05:17;15.00;99.90
5689;DHT22;2869;50.432;8.680;2023-08-06T01:07:56;15.00;99.90
5689;DHT22;2869;50.432;8.680;2023-08-06T01:10:40;15.00;99.90
5689;DHT22;2869;50.432;8.680;2023-08-06T01:13:22;15.00;99.90
5689;DHT22;2869;50.432;8.680;2023-08-06T01:15:53;15.00;99.90
5689;DHT22;2869;50.432;8.680;2023-08-06T01:18:22;15.00;99.90
5689;DHT22;2869;50.432;8.680;2023-08-06T01:20:50;15.10;99.90
5689;DHT22;2869;50.432;8.680;2023-08-06T01:23:17;15.10;99.90
5689;DHT22;2869;50.432;8.680;2023-08-06T01:25:51;15.10;99.90
5689;DHT22;2869;50.432;8.680;2023-08-06T01:28:25;15.00;99.90
5689;DHT22;2869;50.432;8.680;2023-08-06T01:30:55;15.00;99.90
5689;DHT22;2869;50.432;8.680;2023-08-06T01:33:24;15.00;99.90
5689;DHT22;2869;50.432;8.680;2023-08-06T01:35:54;15.00;99.90
5689;DHT22;2869;50.432;8.680;2023-08-06T01:38:22;15.00;99.90
5689;DHT22;2869;50.432;8.680;2023-08-06T01:40:48;15.00;99.90
5689;DHT22;2869;50.432;8.680;2023-08-06T01:43:15;15.00;99.90
5689;DHT22;2869;50.432;8.680;2023-08-06T01:45:41;15.00;99.90
5689;DHT22;2869;50.432;8.680;2023-08-06T01:48:08;14.90;99.90
5689;DHT22;2869;50.432;8.680;2023-08-06T01:50:35;14.90;99.90
5689;DHT22;2869;50.432;8.680;2023-08-06T01:53:03;14.90;99.90
5689;DHT22;2869;50.432;8.680;2023-08-06T01:55:29;14.90;99.90
5689;DHT22;2869;50.432;8.680;2023-08-06T01:57:56;14.80;99.90
5689;DHT22;2869;50.432;8.680;2023-08-06T02:00:23;14.90;99.90
5689;DHT22;2869;50.432;8.680;2023-08-06T02:02:50;14.90;99.90
5689;DHT22;2869;50.432;8.680;2023-08-06T02:05:16;14.90;99.90
5689;DHT22;2869;50.432;8.680;2023-08-06T02:07:43;14.80;99.90
5689;DHT22;2869;50.432;8.680;2023-08-06T02:10:11;14.80;99.90
5689;DHT22;2869;50.432;8.680;2023-08-06T02:12:37;14.80;99.90
5689;DHT22;2869;50.432;8.680;2023-08-06T02:15:05;14.90;99.90
5689;DHT22;2869;50.432;8.680;2023-08-06T02:17:32;14.90;99.90
5689;DHT22;2869;50.432;8.680;2023-08-06T02:19:58;14.90;99.90
5689;DHT22;2869;50.432;8.680;2023-08-06T02:22:26;14.90;99.90
5689;DHT22;2869;50.432;8.680;2023-08-06T02:24:53;14.90;99.90
5689;DHT22;2869;50.432;8.680;2023-08-06T02:27:21;14.90;99.90
5689;DHT22;2869;50.432;8.680;2023-08-06T02:29:47;14.90;99.90
5689;DHT22;2869;50.432;8.680;2023-08-06T02:32:14;14.80;99.90
5689;DHT22;2869;50.432;8.680;2023-08-06T02:34:40;14.90;99.90
5689;DHT22;2869;50.432;8.680;2023-08-06T02:37:07;14.90;99.90
5689;DHT22;2869;50.432;8.680;2023-08-06T02:39:34;14.90;99.90
5689;DHT22;2869;50.432;8.680;2023-08-06T02:42:02;14.80;99.90
5689;DHT22;2869;50.432;8.680;2023-08-06T02:44:30;14.90;99.90
5689;DHT22;2869;50.432;8.680;2023-08-06T02:46:56;14.90;99.90
5689;DHT22;2869;50.432;8.680;2023-08-06T02:49:23;14.90;99.90
5689;DHT22;2869;50.432;8.680;2023-08-06T02:51:50;14.90;99.90
5689;DHT22;2869;50.432;8.680;2023-08-06T02:54:17;14.90;99.90
5689;DHT22;2869;50.432;8.680;2023-08-06T02:56:44;15.00;99.90
5689;DHT22;2869;50.432;8.680;2023-08-06T02:59:11;15.00;99.90
5689;DHT22;2869;50.432;8.680;2023-08-06T03:01:39;15.00;99.90
5689;DHT22;2869;50.432;8.680;2023-08-06T03:04:06;15.00;99.90
5689;DHT22;2869;50.432;8.680;2023-08-06T03:06:32;15.00;99.90
5689;DHT22;2869;50.432;8.680;2023-08-06T03:08:59;15.00;99.90
5689;DHT22;2869;50.432;8.680;2023-08-06T03:11:25;15.00;99.90
5689;DHT22;2869;50.432;8.680;2023-08-06T03:13:52;15.00;99.90
5689;DHT22;2869;50.432;8.680;2023-08-06T03:16:19;15.00;99.90
5689;DHT22;2869;50.432;8.680;2023-08-06T03:18:47;15.00;99.90
5689;DHT22;2869;50.432;8.680;2023-08-06T03:21:13;14.90;99.90
5689;DHT22;2869;50.432;8.680;2023-08-06T03:23:40;14.90;99.90
5689;DHT22;2869;50.432;8.680;2023-08-06T03:26:07;14.90;99.90
5689;DHT22;2869;50.432;8.680;2023-08-06T03:28:34;14.90;99.90
5689;DHT22;2869;50.432;8.680;2023-08-06T03:31:01;14.90;99.90
5689;DHT22;2869;50.432;8.680;2023-08-06T03:33:28;14.80;99.90
5689;DHT22;2869;50.432;8.680;2023-08-06T03:35:56;14.80;99.90
5689;DHT22;2869;50.432;8.680;2023-08-06T03:38:23;14.80;99.90
5689;DHT22;2869;50.432;8.680;2023-08-06T03:40:49;14.80;99.90
5689;DHT22;2869;50.432;8.680;2023-08-06T03:43:16;14.70;99.90
5689;DHT22;2869;50.432;8.680;2023-08-06T03:45:43;14.70;99.90
5689;DHT22;2869;50.432;8.680;2023-08-06T03:48:10;14.70;99.90
5689;DHT22;2869;50.432;8.680;2023-08-06T03:50:36;14.70;99.90
5689;DHT22;2869;50.432;8.680;2023-08-06T03:53:04;14.70;99.90
5689;DHT22;2869;50.432;8.680;2023-08-06T03:55:31;14.70;99.90
5689;DHT22;2869;50.432;8.680;2023-08-06T03:57:58;14.70;99.90
5689;DHT22;2869;50.432;8.680;2023-08-06T04:00:24;14.70;99.90
5689;DHT22;2869;50.432;8.680;2023-08-06T04:02:51;14.80;99.90
5689;DHT22;2869;50.432;8.680;2023-08-06T04:05:18;14.80;99.90
5689;DHT22;2869;50.432;8.680;2023-08-06T04:07:45;14.70;99.90
5689;DHT22;2869;50.432;8.680;2023-08-06T04:10:13;14.70;99.90
5689;DHT22;2869;50.432;8.680;2023-08-06T04:12:39;14.70;99.90
5689;DHT22;2869;50.432;8.680;2023-08-06T04:15:07;14.70;99.90
5689;DHT22;2869;50.432;8.680;2023-08-06T04:17:33;14.70;99.90
5689;DHT22;2869;50.432;8.680;2023-08-06T04:20:00;14.60;99.90
5689;DHT22;2869;50.432;8.680;2023-08-06T04:22:27;14.60;99.90
5689;DHT22;2869;50.432;8.680;2023-08-06T04:24:54;14.60;99.90
5689;DHT22;2869;50.432;8.680;2023-08-06T04:27:22;14.60;99.90
5689;DHT22;2869;50.432;8.680;2023-08-06T04:29:49;14.70;99.90
5689;DHT22;2869;50.432;8.680;2023-08-06T04:32:15;14.70;99.90
5689;DHT22;2869;50.432;8.680;2023-08-06T04:34:42;14.70;99.90
5689;DHT22;2869;50.432;8.680;2023-08-06T04:37:09;14.80;99.90
5689;DHT22;2869;50.432;8.680;2023-08-06T04:39:36;14.80;99.90
5689;DHT22;2869;50.432;8.680;2023-08-06T04:42:03;14.80;99.90
5689;DHT22;2869;50.432;8.680;2023-08-06T04:44:31;14.80;99.90
5689;DHT22;2869;50.432;8.680;2023-08-06T04:46:58;14.90;99.90
5689;DHT22;2869;50.432;8.680;2023-08-06T04:49:24;14.80;99.90
5689;DHT22;2869;50.432;8.680;2023-08-06T04:51:51;14.90;99.90
5689;DHT22;2869;50.432;8.680;2023-08-06T04:54:18;14.90;99.90
5689;DHT22;2869;50.432;8.680;2023-08-06T04:56:44;14.90;99.90
5689;DHT22;2869;50.432;8.680;2023-08-06T04:59:11;14.80;99.90
5689;DHT22;2869;50.432;8.680;2023-08-06T05:01:39;14.80;99.90
5689;DHT22;2869;50.432;8.680;2023-08-06T05:04:06;14.80;99.90
5689;DHT22;2869;50.432;8.680;2023-08-06T05:06:32;14.80;99.90
5689;DHT22;2869;50.432;8.680;2023-08-06T05:08:59;14.90;99.90
5689;DHT22;2869;50.432;8.680;2023-08-06T05:11:26;14.90;99.90
5689;DHT22;2869;50.432;8.680;2023-08-06T05:13:52;14.90;99.90
5689;DHT22;2869;50.432;8.680;2023-08-06T05:16:19;14.90;99.90
5689;DHT22;2869;50.432;8.680;2023-08-06T05:18:47;14.90;99.90
5689;DHT22;2869;50.432;8.680;2023-08-06T05:21:13;14.90;99.90
5689;DHT22;2869;50.432;8.680;2023-08-06T05:23:41;15.00;99.90
5689;DHT22;2869;50.432;8.680;2023-08-06T05:26:08;15.00;99.90
5689;DHT22;2869;50.432;8.680;2023-08-06T05:28:35;15.10;99.90
5689;DHT22;2869;50.432;8.680;2023-08-06T05:31:03;15.10;99.90
5689;DHT22;2869;50.432;8.680;2023-08-06T05:33:30;15.20;99.90
5689;DHT22;2869;50.432;8.680;2023-08-06T05:35:58;15.40;99.90
5689;DHT22;2869;50.432;8.680;2023-08-06T05:38:25;15.50;99.90
5689;DHT22;2869;50.432;8.680;2023-08-06T05:40:51;15.70;99.90
5689;DHT22;2869;50.432;8.680;2023-08-06T05:43:18;15.80;99.90
5689;DHT22;2869;50.432;8.680;2023-08-06T05:45:45;15.90;99.90
5689;DHT22;2869;50.432;8.680;2023-08-06T05:48:12;15.90;99.90
5689;DHT22;2869;50.432;8.680;2023-08-06T05:50:38;16.00;99.90
5689;DHT22;2869;50.432;8.680;2023-08-06T05:53:06;16.00;99.90
5689;DHT22;2869;50.432;8.680;2023-08-06T05:55:33;16.00;99.90
5689;DHT22;2869;50.432;8.680;2023-08-06T05:57:59;16.00;99.90
5689;DHT22;2869;50.432;8.680;2023-08-06T06:00:26;16.00;99.90
5689;DHT22;2869;50.432;8.680;2023-08-06T06:02:53;15.90;99.90
5689;DHT22;2869;50.432;8.680;2023-08-06T06:05:19;15.80;99.90
5689;DHT22;2869;50.432;8.680;2023-08-06T06:07:46;15.70;99.90
5689;DHT22;2869;50.432;8.680;2023-08-06T06:10:14;15.70;99.90
5689;DHT22;2869;50.432;8.680;2023-08-06T06:12:41;15.70;99.90
5689;DHT22;2869;50.432;8.680;2023-08-06T06:15:08;15.70;99.90
5689;DHT22;2869;50.432;8.680;2023-08-06T06:17:35;15.70;99.90
5689;DHT22;2869;50.432;8.680;2023-08-06T06:20:02;15.80;99.90
5689;DHT22;2869;50.432;8.680;2023-08-06T06:22:29;15.80;99.90
5689;DHT22;2869;50.432;8.680;2023-08-06T06:24:56;15.90;99.90
5689;DHT22;2869;50.432;8.680;2023-08-06T06:27:24;16.00;99.90
5689;DHT22;2869;50.432;8.680;2023-08-06T06:29:50;16.10;99.90
5689;DHT22;2869;50.432;8.680;2023-08-06T06:32:18;16.40;99.90
5689;DHT22;2869;50.432;8.680;2023-08-06T06:34:44;16.60;99.90
5689;DHT22;2869;50.432;8.680;2023-08-06T06:37:11;16.70;99.90
5689;DHT22;2869;50.432;8.680;2023-08-06T06:39:37;16.70;99.90
5689;DHT22;2869;50.432;8.680;2023-08-06T06:42:05;16.80;99.90
5689;DHT22;2869;50.432;8.680;2023-08-06T06:44:33;16.70;99.90
5689;DHT22;2869;50.432;8.680;2023-08-06T06:46:59;16.70;99.90
5689;DHT22;2869;50.432;8.680;2023-08-06T06:49:26;16.60;99.90
5689;DHT22;2869;50.432;8.680;2023-08-06T06:51:52;16.60;99.90
5689;DHT22;2869;50.432;8.680;2023-08-06T06:54:19;16.40;99.90
5689;DHT22;2869;50.432;8.680;2023-08-06T06:56:46;16.40;99.90
5689;DHT22;2869;50.432;8.680;2023-08-06T06:59:12;16.40;99.90
5689;DHT22;2869;50.432;8.680;2023-08-06T07:01:40;16.30;99.90
5689;DHT22;2869;50.432;8.680;2023-08-06T07:04:07;16.20;99.90
5689;DHT22;2869;50.432;8.680;2023-08-06T07:06:33;16.10;99.90
5689;DHT22;2869;50.432;8.680;2023-08-06T07:09:00;16.00;99.90
5689;DHT22;2869;50.432;8.680;2023-08-06T07:11:27;15.90;99.90
5689;DHT22;2869;50.432;8.680;2023-08-06T07:13:56;15.80;99.90
5689;DHT22;2869;50.432;8.680;2023-08-06T07:16:23;15.70;99.90
5689;DHT22;2869;50.432;8.680;2023-08-06T07:18:53;15.80;99.90
5689;DHT22;2869;50.432;8.680;2023-08-06T07:21:20;15.80;99.90
5689;DHT22;2869;50.432;8.680;2023-08-06T07:23:47;15.80;99.90
5689;DHT22;2869;50.432;8.680;2023-08-06T07:26:14;15.80;99.90
5689;DHT22;2869;50.432;8.680;2023-08-06T07:28:41;15.80;99.90
5689;DHT22;2869;50.432;8.680;2023-08-06T07:31:08;15.80;99.90
5689;DHT22;2869;50.432;8.680;2023-08-06T07:33:34;15.80;99.90
5689;DHT22;2869;50.432;8.680;2023-08-06T07:36:08;15.70;99.90
5689;DHT22;2869;50.432;8.680;2023-08-06T07:38:36;15.70;99.90
5689;DHT22;2869;50.432;8.680;2023-08-06T07:41:02;15.70;99.90
5689;DHT22;2869;50.432;8.680;2023-08-06T07:43:29;15.70;99.90
5689;DHT22;2869;50.432;8.680;2023-08-06T07:45:57;15.70;99.90
5689;DHT22;2869;50.432;8.680;2023-08-06T07:48:24;15.70;99.90
5689;DHT22;2869;50.432;8.680;2023-08-06T07:50:51;15.70;99.90
5689;DHT22;2869;50.432;8.680;2023-08-06T07:53:20;15.80;99.90
5689;DHT22;2869;50.432;8.680;2023-08-06T07:55:49;15.80;99.90
5689;DHT22;2869;50.432;8.680;2023-08-06T07:58:16;15.70;99.90
5689;DHT22;2869;50.432;8.680;2023-08-06T08:00:42;15.70;99.90
5689;DHT22;2869;50.432;8.680;2023-08-06T08:03:11;15.60;99.90
5689;DHT22;2869;50.432;8.680;2023-08-06T08:05:38;15.60;99.90
5689;DHT22;2869;50.432;8.680;2023-08-06T08:08:04;15.60;99.90
5689;DHT22;2869;50.432;8.680;2023-08-06T08:10:33;15.60;99.90
5689;DHT22;2869;50.432;8.680;2023-08-06T08:13:00;15.70;99.90
5689;DHT22;2869;50.432;8.680;2023-08-06T08:15:28;15.60;99.90
5689;DHT22;2869;50.432;8.680;2023-08-06T08:17:55;15.60;99.90
5689;DHT22;2869;50.432;8.680;2023-08-06T08:20:22;15.70;99.90
5689;DHT22;2869;50.432;8.680;2023-08-06T08:22:48;15.70;99.90
5689;DHT22;2869;50.432;8.680;2023-08-06T08:25:16;15.80;99.90
5689;DHT22;2869;50.432;8.680;2023-08-06T08:27:44;16.00;99.90
5689;DHT22;2869;50.432;8.680;2023-08-06T08:30:10;16.10;99.90
5689;DHT22;2869;50.432;8.680;2023-08-06T08:32:37;16.20;99.90
5689;DHT22;2869;50.432;8.680;2023-08-06T08:35:04;16.20;99.90
5689;DHT22;2869;50.432;8.680;2023-08-06T08:37:31;16.30;99.90
5689;DHT22;2869;50.432;8.680;2023-08-06T08:39:57;16.20;99.90
5689;DHT22;2869;50.432;8.680;2023-08-06T08:42:26;16.30;99.90
5689;DHT22;2869;50.432;8.680;2023-08-06T08:44:54;16.40;99.90
5689;DHT22;2869;50.432;8.680;2023-08-06T08:47:22;16.50;99.90
5689;DHT22;2869;50.432;8.680;2023-08-06T08:49:52;16.70;99.90
5689;DHT22;2869;50.432;8.680;2023-08-06T08:52:21;17.00;99.90
5689;DHT22;2869;50.432;8.680;2023-08-06T08:54:47;17.20;99.90
5689;DHT22;2869;50.432;8.680;2023-08-06T08:57:17;17.40;99.90
5689;DHT22;2869;50.432;8.680;2023-08-06T08:59:43;17.60;99.90
5689;DHT22;2869;50.432;8.680;2023-08-06T09:02:13;18.00;99.90
5689;DHT22;2869;50.432;8.680;2023-08-06T09:04:41;18.10;99.90
5689;DHT22;2869;50.432;8.680;2023-08-06T09:07:11;18.20;99.90
5689;DHT22;2869;50.432;8.680;2023-08-06T09:09:39;18.70;99.90
5689;DHT22;2869;50.432;8.680;2023-08-06T09:12:12;19.20;99.90
5689;DHT22;2869;50.432;8.680;2023-08-06T09:14:39;19.50;99.90
5689;DHT22;2869;50.432;8.680;2023-08-06T09:17:05;19.80;99.90
5689;DHT22;2869;50.432;8.680;2023-08-06T09:19:34;19.70;99.90
5689;DHT22;2869;50.432;8.680;2023-08-06T09:22:01;19.70;99.90
5689;DHT22;2869;50.432;8.680;2023-08-06T09:24:28;19.60;99.90
5689;DHT22;2869;50.432;8.680;2023-08-06T09:26:55;19.60;99.90
5689;DHT22;2869;50.432;8.680;2023-08-06T09:29:22;19.70;99.90
5689;DHT22;2869;50.432;8.680;2023-08-06T09:31:50;19.80;99.90
5689;DHT22;2869;50.432;8.680;2023-08-06T09:34:22;20.10;99.90
5689;DHT22;2869;50.432;8.680;2023-08-06T09:36:51;20.30;99.90
5689;DHT22;2869;50.432;8.680;2023-08-06T09:39:19;20.40;99.90
5689;DHT22;2869;50.432;8.680;2023-08-06T09:41:47;20.70;99.90
5689;DHT22;2869;50.432;8.680;2023-08-06T09:44:18;20.50;99.90
5689;DHT22;2869;50.432;8.680;2023-08-06T09:46:48;20.40;99.90
5689;DHT22;2869;50.432;8.680;2023-08-06T09:49:15;20.30;99.90
5689;DHT22;2869;50.432;8.680;2023-08-06T09:51:42;20.10;99.90
5689;DHT22;2869;50.432;8.680;2023-08-06T09:54:12;20.10;99.90
5689;DHT22;2869;50.432;8.680;2023-08-06T09:56:39;20.10;99.90
5689;DHT22;2869;50.432;8.680;2023-08-06T09:59:06;19.60;99.90
5689;DHT22;2869;50.432;8.680;2023-08-06T10:01:34;19.10;99.90
5689;DHT22;2869;50.432;8.680;2023-08-06T10:04:03;18.80;99.90
5689;DHT22;2869;50.432;8.680;2023-08-06T10:06:31;18.80;99.90
5689;DHT22;2869;50.432;8.680;2023-08-06T10:09:00;18.90;99.90
5689;DHT22;2869;50.432;8.680;2023-08-06T10:11:29;19.20;99.90
5689;DHT22;2869;50.432;8.680;2023-08-06T10:14:00;20.00;99.90
5689;DHT22;2869;50.432;8.680;2023-08-06T10:16:29;20.60;99.90
5689;DHT22;2869;50.432;8.680;2023-08-06T10:18:57;21.10;99.90
5689;DHT22;2869;50.432;8.680;2023-08-06T10:21:24;21.80;99.90
5689;DHT22;2869;50.432;8.680;2023-08-06T10:23:54;21.80;99.90
5689;DHT22;2869;50.432;8.680;2023-08-06T10:26:23;21.80;99.90
5689;DHT22;2869;50.432;8.680;2023-08-06T10:28:52;21.60;99.90
5689;DHT22;2869;50.432;8.680;2023-08-06T10:31:19;21.70;99.90
5689;DHT22;2869;50.432;8.680;2023-08-06T10:33:47;21.90;99.90
5689;DHT22;2869;50.432;8.680;2023-08-06T10:36:14;22.30;99.90
5689;DHT22;2869;50.432;8.680;2023-08-06T10:38:45;22.70;99.90
5689;DHT22;2869;50.432;8.680;2023-08-06T10:41:16;23.20;99.90
5689;DHT22;2869;50.432;8.680;2023-08-06T10:43:43;23.50;99.90
5689;DHT22;2869;50.432;8.680;2023-08-06T10:46:21;23.60;99.90
5689;DHT22;2869;50.432;8.680;2023-08-06T10:48:49;23.80;99.90
5689;DHT22;2869;50.432;8.680;2023-08-06T10:51:15;24.30;99.90
5689;DHT22;2869;50.432;8.680;2023-08-06T10:53:43;24.60;99.90
5689;DHT22;2869;50.432;8.680;2023-08-06T10:56:13;25.00;99.90
5689;DHT22;2869;50.432;8.680;2023-08-06T10:58:40;24.80;99.90
5689;DHT22;2869;50.432;8.680;2023-08-06T11:01:07;24.60;99.90
5689;DHT22;2869;50.432;8.680;2023-08-06T11:03:36;24.30;99.90
5689;DHT22;2869;50.432;8.680;2023-08-06T11:06:03;23.60;99.90
5689;DHT22;2869;50.432;8.680;2023-08-06T11:08:35;23.10;99.90
5689;DHT22;2869;50.432;8.680;2023-08-06T11:11:08;23.00;99.90
5689;DHT22;2869;50.432;8.680;2023-08-06T11:13:36;22.90;99.90
5689;DHT22;2869;50.432;8.680;2023-08-06T11:16:03;22.70;99.90
5689;DHT22;2869;50.432;8.680;2023-08-06T11:18:30;22.20;99.90
5689;DHT22;2869;50.432;8.680;2023-08-06T11:21:00;21.70;99.90
5689;DHT22;2869;50.432;8.680;2023-08-06T11:23:27;21.30;99.90
5689;DHT22;2869;50.432;8.680;2023-08-06T11:25:54;21.00;99.90
5689;DHT22;2869;50.432;8.680;2023-08-06T11:28:21;20.80;99.90
5689;DHT22;2869;50.432;8.680;2023-08-06T11:30:48;20.60;99.90
5689;DHT22;2869;50.432;8.680;2023-08-06T11:33:14;20.60;99.90
5689;DHT22;2869;50.432;8.680;2023-08-06T11:35:41;20.60;99.90
5689;DHT22;2869;50.432;8.680;2023-08-06T11:38:09;20.70;99.90
5689;DHT22;2869;50.432;8.680;2023-08-06T11:40:36;20.80;99.90
5689;DHT22;2869;50.432;8.680;2023-08-06T11:43:02;21.00;99.90
5689;DHT22;2869;50.432;8.680;2023-08-06T11:45:29;21.10;99.90
5689;DHT22;2869;50.432;8.680;2023-08-06T11:47:55;21.10;99.90
5689;DHT22;2869;50.432;8.680;2023-08-06T11:50:24;21.10;99.90
5689;DHT22;2869;50.432;8.680;2023-08-06T11:52:53;21.10;99.90
5689;DHT22;2869;50.432;8.680;2023-08-06T11:55:23;21.10;99.90
5689;DHT22;2869;50.432;8.680;2023-08-06T11:57:50;21.10;99.90
5689;DHT22;2869;50.432;8.680;2023-08-06T12:00:18;21.20;99.90
5689;DHT22;2869;50.432;8.680;2023-08-06T12:02:48;21.10;99.90
5689;DHT22;2869;50.432;8.680;2023-08-06T12:05:18;21.20;99.90
5689;DHT22;2869;50.432;8.680;2023-08-06T12:07:47;20.90;99.90
5689;DHT22;2869;50.432;8.680;2023-08-06T12:10:15;20.20;99.90
5689;DHT22;2869;50.432;8.680;2023-08-06T12:12:43;19.40;99.90
5689;DHT22;2869;50.432;8.680;2023-08-06T12:15:10;18.90;99.90
5689;DHT22;2869;50.432;8.680;2023-08-06T12:17:37;18.50;99.90
5689;DHT22;2869;50.432;8.680;2023-08-06T12:20:05;18.20;99.90
5689;DHT22;2869;50.432;8.680;2023-08-06T12:22:32;18.00;99.90
5689;DHT22;2869;50.432;8.680;2023-08-06T12:25:01;17.70;99.90
5689;DHT22;2869;50.432;8.680;2023-08-06T12:27:28;17.50;99.90
5689;DHT22;2869;50.432;8.680;2023-08-06T12:29:56;17.30;99.90
5689;DHT22;2869;50.432;8.680;2023-08-06T12:32:23;17.10;99.90
5689;DHT22;2869;50.432;8.680;2023-08-06T12:34:49;16.90;99.90
5689;DHT22;2869;50.432;8.680;2023-08-06T12:37:16;16.70;99.90
5689;DHT22;2869;50.432;8.680;2023-08-06T12:39:43;16.60;99.90
5689;DHT22;2869;50.432;8.680;2023-08-06T12:42:09;16.50;99.90
5689;DHT22;2869;50.432;8.680;2023-08-06T12:44:37;16.40;99.90
5689;DHT22;2869;50.432;8.680;2023-08-06T12:47:06;16.30;99.90
5689;DHT22;2869;50.432;8.680;2023-08-06T12:49:33;16.20;99.90
5689;DHT22;2869;50.432;8.680;2023-08-06T12:51:59;16.20;99.90
5689;DHT22;2869;50.432;8.680;2023-08-06T12:54:27;16.10;99.90
5689;DHT22;2869;50.432;8.680;2023-08-06T12:56:54;16.10;99.90
5689;DHT22;2869;50.432;8.680;2023-08-06T12:59:22;16.00;99.90
5689;DHT22;2869;50.432;8.680;2023-08-06T13:01:48;15.90;99.90
5689;DHT22;2869;50.432;8.680;2023-08-06T13:04:16;15.80;99.90
5689;DHT22;2869;50.432;8.680;2023-08-06T13:06:43;15.80;99.90
5689;DHT22;2869;50.432;8.680;2023-08-06T13:09:10;15.90;99.90
5689;DHT22;2869;50.432;8.680;2023-08-06T13:11:37;15.80;99.90
5689;DHT22;2869;50.432;8.680;2023-08-06T13:14:05;15.60;99.90
5689;DHT22;2869;50.432;8.680;2023-08-06T13:16:32;15.50;99.90
5689;DHT22;2869;50.432;8.680;2023-08-06T13:18:59;15.30;99.90
5689;DHT22;2869;50.432;8.680;2023-08-06T13:21:31;15.20;99.90
5689;DHT22;2869;50.432;8.680;2023-08-06T13:23:58;15.10;99.90
5689;DHT22;2869;50.432;8.680;2023-08-06T13:26:25;15.00;99.90
5689;DHT22;2869;50.432;8.680;2023-08-06T13:28:51;14.90;99.90
5689;DHT22;2869;50.432;8.680;2023-08-06T13:31:18;14.80;99.90
5689;DHT22;2869;50.432;8.680;2023-08-06T13:33:45;14.70;99.90
5689;DHT22;2869;50.432;8.680;2023-08-06T13:36:13;14.70;99.90
5689;DHT22;2869;50.432;8.680;2023-08-06T13:38:41;14.70;99.90
5689;DHT22;2869;50.432;8.680;2023-08-06T13:41:08;14.70;99.90
5689;DHT22;2869;50.432;8.680;2023-08-06T13:43:35;14.70;99.90
5689;DHT22;2869;50.432;8.680;2023-08-06T13:46:01;14.80;99.90
5689;DHT22;2869;50.432;8.680;2023-08-06T13:48:28;14.80;99.90
5689;DHT22;2869;50.432;8.680;2023-08-06T13:50:55;14.90;99.90
5689;DHT22;2869;50.432;8.680;2023-08-06T13:53:21;14.90;99.90
5689;DHT22;2869;50.432;8.680;2023-08-06T13:55:49;14.90;99.90
5689;DHT22;2869;50.432;8.680;2023-08-06T13:58:16;14.80;99.90
5689;DHT22;2869;50.432;8.680;2023-08-06T14:00:43;14.90;99.90
5689;DHT22;2869;50.432;8.680;2023-08-06T14:03:09;14.80;99.90
5689;DHT22;2869;50.432;8.680;2023-08-06T14:05:36;14.80;99.90
5689;DHT22;2869;50.432;8.680;2023-08-06T14:08:03;14.70;99.90
5689;DHT22;2869;50.432;8.680;2023-08-06T14:10:30;14.70;99.90
5689;DHT22;2869;50.432;8.680;2023-08-06T14:12:58;14.80;99.90
5689;DHT22;2869;50.432;8.680;2023-08-06T14:15:25;14.90;99.90
5689;DHT22;2869;50.432;8.680;2023-08-06T14:17:51;15.00;99.90
5689;DHT22;2869;50.432;8.680;2023-08-06T14:20:18;14.90;99.90
5689;DHT22;2869;50.432;8.680;2023-08-06T14:22:45;14.90;99.90
5689;DHT22;2869;50.432;8.680;2023-08-06T14:25:11;14.90;99.90
5689;DHT22;2869;50.432;8.680;2023-08-06T14:27:38;14.90;99.90
5689;DHT22;2869;50.432;8.680;2023-08-06T14:30:07;15.00;99.90
5689;DHT22;2869;50.432;8.680;2023-08-06T14:32:34;15.00;99.90
5689;DHT22;2869;50.432;8.680;2023-08-06T14:35:01;15.00;99.90
5689;DHT22;2869;50.432;8.680;2023-08-06T14:37:28;15.00;99.90
5689;DHT22;2869;50.432;8.680;2023-08-06T14:39:54;15.00;99.90
5689;DHT22;2869;50.432;8.680;2023-08-06T14:42:21;15.00;99.90
5689;DHT22;2869;50.432;8.680;2023-08-06T14:44:48;15.00;99.90
5689;DHT22;2869;50.432;8.680;2023-08-06T14:47:16;15.00;99.90
5689;DHT22;2869;50.432;8.680;2023-08-06T14:49:43;15.00;99.90
5689;DHT22;2869;50.432;8.680;2023-08-06T14:52:10;15.10;99.90
5689;DHT22;2869;50.432;8.680;2023-08-06T14:54:36;15.10;99.90
5689;DHT22;2869;50.432;8.680;2023-08-06T14:57:04;15.20;99.90
5689;DHT22;2869;50.432;8.680;2023-08-06T14:59:30;15.20;99.90
5689;DHT22;2869;50.432;8.680;2023-08-06T15:01:58;15.20;99.90
5689;DHT22;2869;50.432;8.680;2023-08-06T15:04:26;15.20;99.90
5689;DHT22;2869;50.432;8.680;2023-08-06T15:06:52;15.30;99.90
5689;DHT22;2869;50.432;8.680;2023-08-06T15:09:20;15.20;99.90
5689;DHT22;2869;50.432;8.680;2023-08-06T15:11:47;15.20;99.90
5689;DHT22;2869;50.432;8.680;2023-08-06T15:14:14;15.20;99.90
5689;DHT22;2869;50.432;8.680;2023-08-06T15:16:41;15.20;99.90
5689;DHT22;2869;50.432;8.680;2023-08-06T15:19:07;15.10;99.90
5689;DHT22;2869;50.432;8.680;2023-08-06T15:21:35;15.20;99.90
5689;DHT22;2869;50.432;8.680;2023-08-06T15:24:02;15.10;99.90
5689;DHT22;2869;50.432;8.680;2023-08-06T15:26:29;15.10;99.90
5689;DHT22;2869;50.432;8.680;2023-08-06T15:28:55;15.10;99.90
5689;DHT22;2869;50.432;8.680;2023-08-06T15:31:22;15.20;99.90
5689;DHT22;2869;50.432;8.680;2023-08-06T15:33:49;15.20;99.90
5689;DHT22;2869;50.432;8.680;2023-08-06T15:36:16;15.30;99.90
5689;DHT22;2869;50.432;8.680;2023-08-06T15:38:43;15.30;99.90
5689;DHT22;2869;50.432;8.680;2023-08-06T15:41:10;15.30;99.90
5689;DHT22;2869;50.432;8.680;2023-08-06T15:43:37;15.20;99.90
5689;DHT22;2869;50.432;8.680;2023-08-06T15:46:03;15.20;99.90
5689;DHT22;2869;50.432;8.680;2023-08-06T15:48:30;15.00;99.90
5689;DHT22;2869;50.432;8.680;2023-08-06T15:50:57;14.90;99.90
5689;DHT22;2869;50.432;8.680;2023-08-06T15:53:24;15.00;99.90
5689;DHT22;2869;50.432;8.680;2023-08-06T15:55:52;15.00;99.90
5689;DHT22;2869;50.432;8.680;2023-08-06T15:58:18;14.90;99.90
5689;DHT22;2869;50.432;8.680;2023-08-06T16:00:47;14.90;99.90
5689;DHT22;2869;50.432;8.680;2023-08-06T16:03:14;14.80;99.90